createdAt,value
2023-01-11T00:01:10.044Z,72.73
2023-01-11T00:03:37.692Z,69.37
2023-01-11T00:06:14.153Z,69.40
2023-01-11T00:08:41.238Z,59.27
2023-01-11T00:11:15.442Z,73.63
2023-01-11T00:13:45.283Z,62.40
2023-01-11T00:16:16.445Z,71.23
2023-01-11T00:18:43.680Z,62.80
2023-01-11T00:21:10.688Z,66.27
2023-01-11T00:23:38.319Z,72.27
2023-01-11T00:26:07.473Z,65.60
2023-01-11T00:28:34.572Z,66.70
2023-01-11T00:31:02.003Z,64.53
2023-01-11T00:33:29.099Z,63.00
2023-01-11T00:35:56.074Z,63.60
2023-01-11T00:38:42.416Z,58.90
2023-01-11T00:41:29.777Z,61.50
2023-01-11T00:44:15.561Z,57.70
2023-01-11T00:47:01.281Z,57.00
2023-01-11T00:49:28.505Z,59.97
2023-01-11T00:51:55.437Z,57.27
2023-01-11T00:54:22.546Z,61.77
2023-01-11T00:56:49.562Z,59.10
2023-01-11T00:59:16.661Z,63.73
2023-01-11T01:01:43.851Z,67.33
2023-01-11T01:04:11.102Z,72.33
2023-01-11T01:06:38.326Z,66.50
2023-01-11T01:09:05.557Z,67.97
2023-01-11T01:11:32.617Z,65.33
2023-01-11T01:14:22.854Z,62.77
2023-01-11T01:16:50.041Z,65.37
2023-01-11T01:19:17.137Z,66.80
2023-01-11T01:21:44.347Z,64.77
2023-01-11T01:24:11.447Z,61.60
2023-01-11T01:26:38.489Z,61.93
2023-01-11T01:29:05.586Z,65.23
2023-01-11T01:31:33.081Z,69.20
2023-01-11T01:34:00.254Z,64.83
2023-01-11T01:36:27.461Z,65.70
2023-01-11T01:38:54.535Z,63.43
2023-01-11T01:41:21.779Z,64.80
2023-01-11T01:43:57.872Z,57.40
2023-01-11T01:46:30.700Z,65.70
2023-01-11T01:49:09.392Z,64.73
2023-01-11T01:51:43.459Z,61.77
2023-01-11T01:54:15.470Z,60.17
2023-01-11T01:57:00.246Z,67.00
2023-01-11T01:59:30.393Z,63.03
2023-01-11T02:01:57.868Z,68.27
2023-01-11T02:04:27.203Z,65.20
2023-01-11T02:06:59.670Z,63.90
2023-01-11T02:09:36.407Z,61.57
2023-01-11T02:12:04.479Z,61.93
2023-01-11T02:14:33.058Z,69.57
2023-01-11T02:17:00.345Z,66.93
2023-01-11T02:19:51.580Z,66.57
2023-01-11T02:22:43.239Z,71.47
2023-01-11T02:25:45.538Z,74.90
2023-01-11T02:28:29.202Z,77.57
2023-01-11T02:31:21.205Z,76.43
2023-01-11T02:34:00.266Z,81.47
2023-01-11T02:36:46.914Z,78.87
2023-01-11T02:39:16.738Z,81.00
2023-01-11T02:42:17.396Z,78.60
2023-01-11T02:45:13.398Z,80.33
2023-01-11T02:48:00.750Z,83.27
2023-01-11T02:50:46.826Z,89.70
2023-01-11T02:53:26.088Z,90.03
2023-01-11T02:55:58.632Z,89.97
2023-01-11T02:58:29.561Z,94.83
2023-01-11T03:00:58.562Z,94.23
2023-01-11T03:03:27.857Z,104.47
2023-01-11T03:06:18.362Z,116.80
2023-01-11T03:09:19.490Z,120.63
2023-01-11T03:12:46.830Z,122.53
2023-01-11T03:15:39.724Z,126.03
2023-01-11T03:18:21.875Z,124.37
2023-01-11T03:21:07.610Z,143.23
2023-01-11T03:23:45.235Z,141.73
2023-01-11T03:26:31.827Z,154.50
2023-01-11T03:29:23.432Z,156.20
2023-01-11T03:31:53.811Z,174.47
2023-01-11T03:34:34.521Z,163.57
2023-01-11T03:37:04.097Z,181.60
2023-01-11T03:39:36.813Z,175.07
2023-01-11T03:42:08.152Z,179.77
2023-01-11T03:44:46.733Z,174.43
2023-01-11T03:47:16.784Z,170.70
2023-01-11T03:49:54.623Z,172.57
2023-01-11T03:52:25.841Z,177.63
2023-01-11T03:54:56.509Z,178.63
2023-01-11T03:57:32.126Z,184.07
2023-01-11T03:59:59.847Z,187.03
2023-01-11T04:02:33.388Z,191.40
2023-01-11T04:05:00.630Z,179.00
2023-01-11T04:07:27.705Z,186.27
2023-01-11T04:09:54.836Z,179.23
2023-01-11T04:12:21.775Z,184.27
2023-01-11T04:14:48.768Z,187.67
2023-01-11T04:17:15.766Z,186.30
2023-01-11T04:19:42.966Z,167.47
2023-01-11T04:22:09.972Z,159.47
2023-01-11T04:24:37.171Z,155.40
2023-01-11T04:27:04.161Z,148.70
2023-01-11T04:29:31.206Z,143.63
2023-01-11T04:31:58.154Z,143.40
2023-01-11T04:34:25.149Z,150.90
2023-01-11T04:36:52.310Z,138.77
2023-01-11T04:39:19.412Z,142.27
2023-01-11T04:42:04.843Z,137.67
2023-01-11T04:44:31.961Z,139.47
2023-01-11T04:46:58.979Z,136.03
2023-01-11T04:49:26.137Z,132.33
2023-01-11T04:51:53.492Z,138.70
2023-01-11T04:54:20.687Z,133.60
2023-01-11T04:56:47.690Z,142.97
2023-01-11T04:59:14.796Z,138.50
2023-01-11T05:01:41.804Z,140.43
2023-01-11T05:04:08.911Z,129.60
2023-01-11T05:06:36.246Z,130.90
2023-01-11T05:09:03.559Z,129.57
2023-01-11T05:11:30.656Z,139.63
2023-01-11T05:14:00.053Z,136.73
2023-01-11T05:16:27.069Z,131.67
2023-01-11T05:18:56.547Z,128.90
2023-01-11T05:21:26.874Z,130.37
2023-01-11T05:23:54.585Z,132.47
2023-01-11T05:26:23.798Z,135.03
2023-01-11T05:28:52.057Z,133.50
2023-01-11T05:31:19.399Z,132.87
2023-01-11T05:33:46.720Z,133.63
2023-01-11T05:36:25.517Z,128.47
2023-01-11T05:38:54.734Z,132.13
2023-01-11T05:41:24.085Z,134.00
2023-01-11T05:44:10.716Z,126.27
2023-01-11T05:46:39.325Z,133.10
2023-01-11T05:49:07.989Z,133.10
2023-01-11T05:51:35.783Z,139.93
2023-01-11T05:54:04.530Z,141.90
2023-01-11T05:56:32.337Z,155.80
2023-01-11T05:58:59.975Z,156.50
2023-01-11T06:01:27.393Z,145.17
2023-01-11T06:03:54.368Z,147.30
2023-01-11T06:06:22.441Z,146.37
2023-01-11T06:08:49.534Z,147.87
2023-01-11T06:11:16.791Z,142.07
2023-01-11T06:13:43.994Z,143.37
2023-01-11T06:16:14.182Z,155.13
2023-01-11T06:18:45.869Z,145.63
2023-01-11T06:21:14.212Z,146.53
2023-01-11T06:23:44.179Z,153.40
2023-01-11T06:26:16.760Z,148.03
2023-01-11T06:28:43.831Z,132.70
2023-01-11T06:31:11.291Z,141.30
2023-01-11T06:33:39.130Z,145.03
2023-01-11T06:36:08.899Z,134.73
2023-01-11T06:38:36.875Z,132.70
2023-01-11T06:41:05.817Z,137.57
2023-01-11T06:43:33.182Z,128.90
2023-01-11T06:46:00.715Z,126.27
2023-01-11T06:48:28.281Z,130.13
2023-01-11T06:50:57.813Z,129.97
2023-01-11T06:53:28.632Z,133.47
2023-01-11T06:55:57.983Z,125.17
2023-01-11T06:58:26.177Z,126.73
2023-01-11T07:00:57.236Z,134.07
2023-01-11T07:03:27.637Z,135.97
2023-01-11T07:05:59.017Z,144.27
2023-01-11T07:08:26.683Z,122.90
2023-01-11T07:10:54.277Z,126.03
2023-01-11T07:13:22.039Z,122.80
2023-01-11T07:15:50.879Z,120.67
2023-01-11T07:18:19.055Z,130.53
2023-01-11T07:20:46.666Z,120.00
2023-01-11T07:23:14.246Z,124.00
2023-01-11T07:25:41.408Z,107.07
2023-01-11T07:28:09.425Z,124.83
2023-01-11T07:30:56.212Z,111.33
2023-01-11T07:33:25.316Z,118.33
2023-01-11T07:35:52.518Z,109.07
2023-01-11T07:38:19.656Z,108.10
2023-01-11T07:40:47.049Z,111.83
2023-01-11T07:43:15.226Z,119.03
2023-01-11T07:45:46.603Z,116.07
2023-01-11T07:48:15.820Z,110.60
2023-01-11T07:50:45.090Z,112.00
2023-01-11T07:53:13.722Z,104.33
2023-01-11T07:55:41.433Z,92.82
2023-01-11T07:58:12.387Z,91.57
2023-01-11T08:00:43.371Z,80.43
2023-01-11T08:03:11.113Z,85.53
2023-01-11T08:05:38.907Z,84.15
2023-01-11T08:08:06.978Z,85.47
2023-01-11T08:10:34.759Z,72.15
2023-01-11T08:13:20.230Z,71.63
2023-01-11T08:15:47.535Z,75.38
2023-01-11T08:18:14.583Z,70.55
2023-01-11T08:20:41.771Z,68.55
2023-01-11T08:23:10.458Z,72.88
2023-01-11T08:25:38.415Z,71.93
2023-01-11T08:28:07.311Z,69.50
2023-01-11T08:30:34.999Z,78.72
2023-01-11T08:33:02.797Z,76.88
2023-01-11T08:35:32.041Z,73.22
2023-01-11T08:37:59.156Z,63.58
2023-01-11T08:40:26.226Z,68.97
2023-01-11T08:42:57.110Z,69.95
2023-01-11T08:45:24.832Z,67.82
2023-01-11T08:47:52.608Z,61.20
2023-01-11T08:50:22.238Z,62.13
2023-01-11T08:52:51.321Z,59.97
2023-01-11T08:55:19.811Z,56.47
2023-01-11T08:57:47.463Z,57.08
2023-01-11T09:00:15.263Z,53.42
2023-01-11T09:02:42.549Z,46.10
2023-01-11T09:05:09.989Z,48.75
2023-01-11T09:07:37.205Z,44.72
2023-01-11T09:10:05.276Z,45.60
2023-01-11T09:12:32.948Z,46.25
2023-01-11T09:15:00.435Z,42.65
2023-01-11T09:17:27.837Z,46.30
2023-01-11T09:19:54.864Z,42.63
2023-01-11T09:22:21.964Z,36.90
2023-01-11T09:24:49.057Z,41.22
2023-01-11T09:27:16.668Z,38.72
2023-01-11T09:29:43.847Z,44.20
2023-01-11T09:32:10.926Z,41.47
2023-01-11T09:34:38.018Z,46.50
2023-01-11T09:37:07.002Z,41.25
2023-01-11T09:39:35.335Z,43.88
2023-01-11T09:42:36.776Z,41.47
2023-01-11T09:45:23.107Z,47.03
2023-01-11T09:48:01.019Z,45.05
2023-01-11T09:50:40.035Z,39.35
2023-01-11T09:53:12.292Z,38.42
2023-01-11T09:55:47.187Z,30.38
2023-01-11T09:58:32.615Z,28.13
2023-01-11T10:01:17.651Z,29.42
2023-01-11T10:04:11.883Z,33.75
2023-01-11T10:06:42.616Z,37.42
2023-01-11T10:18:27.914Z,37.17
2023-01-11T10:18:58.539Z,35.05
2023-01-11T10:21:31.847Z,35.83
2023-01-11T10:24:03.817Z,33.47
2023-01-11T10:26:40.063Z,33.03
2023-01-11T10:29:53.956Z,32.03
2023-01-11T10:32:54.402Z,27.73
2023-01-11T10:35:45.952Z,25.40
2023-01-11T10:38:52.157Z,23.05
2023-01-11T10:41:49.036Z,27.00
2023-01-11T10:44:26.881Z,30.58
2023-01-11T10:46:55.199Z,24.83
2023-01-11T10:49:36.736Z,27.77
2023-01-11T10:52:28.394Z,26.65
2023-01-11T10:54:57.516Z,29.67
2023-01-11T10:58:03.411Z,28.45
2023-01-11T11:00:51.625Z,29.02
2023-01-11T11:03:35.338Z,28.50
2023-01-11T11:06:13.491Z,30.30
2023-01-11T11:08:43.524Z,28.85
2023-01-11T11:11:26.777Z,28.10
2023-01-11T11:14:24.040Z,28.85
2023-01-11T11:16:59.639Z,28.27
2023-01-11T11:19:32.367Z,32.03
2023-01-11T11:22:00.620Z,33.17
2023-01-11T11:24:49.862Z,33.28
2023-01-11T11:27:35.670Z,28.00
2023-01-11T11:30:03.478Z,28.23
2023-01-11T11:32:37.753Z,27.10
2023-01-11T11:35:07.861Z,25.80
2023-01-11T11:37:39.765Z,28.02
2023-01-11T11:40:07.341Z,26.27
2023-01-11T11:42:34.366Z,27.83
2023-01-11T11:45:14.010Z,24.80
2023-01-11T11:47:41.064Z,23.55
2023-01-11T11:50:42.013Z,23.80
2023-01-11T11:53:07.488Z,22.08
2023-01-11T11:55:35.620Z,20.98
2023-01-11T11:58:08.697Z,19.20
2023-01-11T12:00:43.133Z,19.90
2023-01-11T12:03:26.271Z,20.67
2023-01-11T12:05:55.747Z,16.05
2023-01-11T12:08:25.162Z,16.08
2023-01-11T12:11:05.623Z,16.50
2023-01-11T12:13:36.340Z,18.80
2023-01-11T12:16:19.214Z,17.10
2023-01-11T12:18:47.000Z,17.75
2023-01-11T12:21:26.257Z,19.98
2023-01-11T12:24:23.817Z,18.55
2023-01-11T12:27:05.906Z,20.30
2023-01-11T12:29:53.044Z,19.10
2023-01-11T12:33:07.822Z,24.45
2023-01-11T12:36:03.721Z,20.70
2023-01-11T12:38:40.605Z,17.25
2023-01-11T12:41:44.289Z,18.83
2023-01-11T12:44:15.023Z,17.23
2023-01-11T12:47:00.137Z,22.13
2023-01-11T12:49:32.494Z,15.30
2023-01-11T12:52:08.596Z,15.15
2023-01-11T12:55:01.771Z,15.43
2023-01-11T12:58:05.090Z,12.68
2023-01-11T13:00:44.475Z,13.30
2023-01-11T13:03:34.399Z,13.93
2023-01-11T13:06:31.447Z,14.07
2023-01-11T13:09:20.989Z,16.00
2023-01-11T13:12:13.281Z,16.38
2023-01-11T13:14:58.505Z,16.75
2023-01-11T13:17:38.946Z,16.30
2023-01-11T13:20:40.369Z,16.95
2023-01-11T13:23:42.027Z,15.10
2023-01-11T13:26:44.939Z,20.42
2023-01-11T13:29:18.923Z,17.55
2023-01-11T13:31:48.474Z,16.90
2023-01-11T13:34:23.988Z,20.23
2023-01-11T13:36:59.892Z,19.75
2023-01-11T13:39:40.592Z,17.52
2023-01-11T13:42:26.771Z,20.52
2023-01-11T13:45:35.616Z,18.27
2023-01-11T13:48:08.665Z,17.98
2023-01-11T13:50:42.303Z,15.90
2023-01-11T13:53:37.622Z,16.90
2023-01-11T13:56:30.858Z,19.67
2023-01-11T13:59:09.074Z,18.30
2023-01-11T14:01:41.537Z,18.90
2023-01-11T14:04:30.251Z,20.00
2023-01-11T14:07:23.485Z,18.38
2023-01-11T14:10:02.558Z,21.08
2023-01-11T14:13:01.310Z,19.63
2023-01-11T14:15:40.998Z,19.17
2023-01-11T14:18:23.455Z,20.90
2023-01-11T14:21:33.610Z,18.58
2023-01-11T14:24:02.533Z,21.15
2023-01-11T14:26:59.391Z,21.58
2023-01-11T14:30:00.446Z,20.60
2023-01-11T14:33:04.791Z,18.77
2023-01-11T14:35:47.207Z,19.13
2023-01-11T14:38:20.026Z,21.95
2023-01-11T14:41:05.708Z,21.70
2023-01-11T14:43:38.984Z,23.55
2023-01-11T14:46:41.424Z,23.05
2023-01-11T14:49:20.304Z,20.02
2023-01-11T14:51:56.658Z,21.15
2023-01-11T14:54:32.473Z,21.88
2023-01-11T14:57:00.688Z,21.10
2023-01-11T14:59:30.636Z,22.20
2023-01-11T15:02:04.200Z,22.85
2023-01-11T15:04:59.209Z,21.42
2023-01-11T15:07:29.089Z,22.88
2023-01-11T15:09:58.659Z,22.97
2023-01-11T15:12:36.055Z,24.65
2023-01-11T15:15:14.790Z,23.92
2023-01-11T15:18:01.036Z,22.97
2023-01-11T15:20:28.617Z,24.60
2023-01-11T15:22:58.435Z,22.10
2023-01-11T15:25:34.022Z,27.63
2023-01-11T15:28:25.485Z,27.97
2023-01-11T15:30:53.113Z,25.67
2023-01-11T15:33:20.375Z,26.87
2023-01-11T15:35:56.979Z,27.40
2023-01-11T15:38:42.817Z,29.23
2023-01-11T15:41:34.947Z,32.80
2023-01-11T15:44:08.298Z,29.43
2023-01-11T15:46:53.382Z,30.87
2023-01-11T15:49:42.295Z,34.17
2023-01-11T15:52:40.423Z,35.80
2023-01-11T15:55:26.070Z,33.60
2023-01-11T15:57:56.196Z,40.03
2023-01-11T16:00:44.385Z,36.50
2023-01-11T16:03:29.575Z,35.77
2023-01-11T16:06:08.977Z,37.87
2023-01-11T16:08:50.159Z,43.67
2023-01-11T16:11:28.789Z,38.00
2023-01-11T16:13:56.032Z,42.07
2023-01-11T16:16:33.526Z,40.87
2023-01-11T16:19:14.375Z,37.50
2023-01-11T16:21:43.939Z,40.43
2023-01-11T16:24:20.816Z,45.17
2023-01-11T16:26:58.832Z,41.60
2023-01-11T16:29:30.617Z,47.10
2023-01-11T16:32:00.831Z,47.57
2023-01-11T16:34:30.007Z,50.80
2023-01-11T16:36:57.995Z,52.33
2023-01-11T16:39:28.577Z,50.93
2023-01-11T16:42:14.670Z,52.67
2023-01-11T16:44:57.617Z,55.53
2023-01-11T16:47:24.690Z,57.23
2023-01-11T16:50:23.102Z,54.00
2023-01-11T16:52:55.139Z,54.90
2023-01-11T16:55:31.228Z,60.60
2023-01-11T16:58:26.391Z,54.27
2023-01-11T17:01:14.527Z,52.93
2023-01-11T17:03:54.627Z,55.90
2023-01-11T17:06:25.710Z,58.00
2023-01-11T17:08:57.361Z,56.63
2023-01-11T17:11:29.712Z,57.87
2023-01-11T17:14:34.177Z,59.20
2023-01-11T17:17:04.532Z,60.23
2023-01-11T17:19:34.878Z,55.80
2023-01-11T17:22:14.689Z,52.03
2023-01-11T17:24:46.483Z,53.63
2023-01-11T17:27:21.129Z,51.30
2023-01-11T17:29:49.264Z,54.60
2023-01-11T17:32:42.760Z,59.37
2023-01-11T17:35:24.879Z,57.63
2023-01-11T17:37:55.894Z,57.77
2023-01-11T17:40:35.923Z,56.63
2023-01-11T17:43:25.628Z,57.50
2023-01-11T17:45:59.663Z,58.53
2023-01-11T17:48:28.228Z,62.47
2023-01-11T17:51:01.182Z,64.43
2023-01-11T17:53:34.143Z,67.70
2023-01-11T17:56:07.391Z,58.40
2023-01-11T17:58:36.547Z,68.97
2023-01-11T18:01:09.830Z,69.33
2023-01-11T18:03:54.768Z,65.43
2023-01-11T18:06:42.560Z,75.93
2023-01-11T18:09:30.608Z,73.93
2023-01-11T18:12:13.888Z,71.63
2023-01-11T18:14:52.548Z,80.60
2023-01-11T18:17:44.385Z,72.83
2023-01-11T18:20:14.885Z,75.37
2023-01-11T18:22:56.792Z,77.83
2023-01-11T18:25:26.331Z,77.67
2023-01-11T18:28:21.465Z,70.47
2023-01-11T18:30:54.004Z,76.23
2023-01-11T18:33:23.845Z,74.13
2023-01-11T18:35:53.685Z,66.57
2023-01-11T18:38:25.500Z,71.60
2023-01-11T18:40:54.520Z,69.67
2023-01-11T18:43:28.105Z,68.23
2023-01-11T18:45:55.822Z,73.70
2023-01-11T18:48:23.313Z,79.60
2023-01-11T18:50:52.182Z,73.17
2023-01-11T18:53:19.220Z,74.13
2023-01-11T18:55:46.499Z,78.53
2023-01-11T18:58:13.964Z,82.00
2023-01-11T19:00:41.743Z,81.50
2023-01-11T19:03:11.695Z,87.17
2023-01-11T19:05:40.098Z,92.27
2023-01-11T19:08:07.921Z,92.20
2023-01-11T19:10:35.092Z,80.00
2023-01-11T19:13:02.310Z,85.37
2023-01-11T19:15:29.368Z,83.27
2023-01-11T19:17:56.639Z,89.13
2023-01-11T19:20:23.697Z,92.80
2023-01-11T19:22:50.855Z,92.73
2023-01-11T19:25:17.940Z,89.83
2023-01-11T19:27:44.999Z,93.23
2023-01-11T19:30:12.979Z,91.27
2023-01-11T19:32:40.173Z,88.20
2023-01-11T19:35:08.345Z,93.93
2023-01-11T19:37:37.632Z,94.63
2023-01-11T19:40:05.879Z,86.47
2023-01-11T19:42:32.860Z,88.10
2023-01-11T19:44:59.929Z,87.77
2023-01-11T19:47:27.063Z,87.60
2023-01-11T19:49:56.508Z,86.27
2023-01-11T19:52:23.706Z,74.13
2023-01-11T19:54:51.390Z,76.03
2023-01-11T19:57:20.698Z,71.63
2023-01-11T19:59:48.852Z,75.90
2023-01-11T20:02:19.595Z,79.30
2023-01-11T20:04:47.481Z,74.97
2023-01-11T20:07:15.940Z,80.30
2023-01-11T20:09:43.316Z,73.10
2023-01-11T20:12:12.508Z,77.03
2023-01-11T20:14:40.847Z,78.10
2023-01-11T20:17:08.324Z,76.17
2023-01-11T20:19:35.488Z,75.60
2023-01-11T20:22:03.321Z,72.07
2023-01-11T20:24:30.741Z,74.53
2023-01-11T20:26:59.985Z,70.33
2023-01-11T20:29:27.838Z,81.47
2023-01-11T20:31:55.096Z,74.90
2023-01-11T20:34:22.236Z,71.43
2023-01-11T20:36:49.583Z,76.73
2023-01-11T20:39:17.609Z,70.77
2023-01-11T20:41:47.641Z,68.07
2023-01-11T20:44:20.263Z,73.03
2023-01-11T20:46:48.573Z,72.63
2023-01-11T20:49:17.205Z,69.87
2023-01-11T20:51:45.868Z,66.33
2023-01-11T20:54:13.912Z,56.47
2023-01-11T20:56:41.820Z,56.57
2023-01-11T21:01:37.759Z,73.67
2023-01-11T21:04:08.459Z,75.37
2023-01-11T21:06:38.736Z,85.13
2023-01-11T21:09:07.079Z,82.90
2023-01-11T21:11:34.693Z,91.63
2023-01-11T21:14:04.253Z,88.27
2023-01-11T21:16:31.700Z,87.37
2023-01-11T21:19:01.625Z,83.47
2023-01-11T21:21:30.834Z,83.53
2023-01-11T21:24:00.562Z,85.50
2023-01-11T21:26:28.464Z,87.23
2023-01-11T21:29:00.704Z,85.23
2023-01-11T21:31:30.799Z,85.03
2023-01-11T21:33:59.040Z,83.83
2023-01-11T21:36:27.899Z,77.10
2023-01-11T21:38:56.918Z,83.57
2023-01-11T21:41:47.764Z,83.57
2023-01-11T21:44:16.205Z,79.70
2023-01-11T21:46:43.780Z,83.37
2023-01-11T21:49:11.786Z,81.00
2023-01-11T21:51:39.956Z,80.80
2023-01-11T21:54:09.406Z,87.37
2023-01-11T21:56:37.210Z,81.03
2023-01-11T21:59:04.882Z,87.90
2023-01-11T22:01:31.895Z,85.63
2023-01-11T22:03:59.175Z,84.20
2023-01-11T22:06:26.383Z,81.50
2023-01-11T22:08:53.492Z,84.20
2023-01-11T22:11:20.624Z,84.33
2023-01-11T22:13:47.666Z,81.60
2023-01-11T22:16:17.617Z,80.60
2023-01-11T22:18:45.848Z,88.27
2023-01-11T22:21:22.387Z,81.90
2023-01-11T22:23:54.087Z,78.60
2023-01-11T22:26:21.714Z,82.50
2023-01-11T22:29:10.855Z,80.57
2023-01-11T22:31:42.085Z,81.03
2023-01-11T22:34:10.201Z,86.07
2023-01-11T22:36:37.583Z,77.17
2023-01-11T22:39:05.045Z,79.87
2023-01-11T22:41:32.582Z,79.77
2023-01-11T22:43:59.667Z,86.23
2023-01-11T22:46:27.800Z,87.50
2023-01-11T22:48:55.226Z,89.00
2023-01-11T22:51:25.928Z,83.67
2023-01-11T22:53:54.542Z,93.27
2023-01-11T22:56:25.582Z,92.93
2023-01-11T22:58:53.960Z,92.63
2023-01-11T23:01:26.953Z,91.47
2023-01-11T23:03:55.470Z,97.77
2023-01-11T23:06:43.168Z,105.63
2023-01-11T23:09:15.957Z,105.70
2023-01-11T23:12:02.674Z,108.07
2023-01-11T23:14:31.256Z,111.33
2023-01-11T23:17:08.332Z,110.70
2023-01-11T23:19:37.688Z,107.07
2023-01-11T23:22:05.601Z,108.40
2023-01-11T23:24:33.333Z,103.73
2023-01-11T23:27:00.609Z,101.70
2023-01-11T23:29:27.913Z,101.03
2023-01-11T23:31:55.112Z,113.27
2023-01-11T23:34:22.405Z,109.17
2023-01-11T23:36:49.477Z,106.00
2023-01-11T23:39:18.850Z,113.27
2023-01-11T23:42:04.835Z,108.27
2023-01-11T23:44:32.142Z,109.27
2023-01-11T23:47:17.704Z,111.33
2023-01-11T23:49:45.583Z,104.93
2023-01-11T23:52:12.709Z,107.57
2023-01-11T23:54:39.985Z,112.20
2023-01-11T23:57:07.433Z,117.30
2023-01-11T23:59:34.536Z,124.70
